createdAt,value
2022-09-25T00:00:54.301Z,18.13
2022-09-25T00:03:22.815Z,22.20
2022-09-25T00:05:49.235Z,21.08
2022-09-25T00:08:16.911Z,20.65
2022-09-25T00:10:45.716Z,21.23
2022-09-25T00:13:12.130Z,24.38
2022-09-25T00:15:44.984Z,19.45
2022-09-25T00:18:11.435Z,23.77
2022-09-25T00:20:37.815Z,23.05
2022-09-25T00:23:04.215Z,20.85
2022-09-25T00:25:30.600Z,20.13
2022-09-25T00:27:56.993Z,20.52
2022-09-25T00:30:23.924Z,19.55
2022-09-25T00:32:50.502Z,21.92
2022-09-25T00:35:17.029Z,21.38
2022-09-25T00:37:43.415Z,20.90
2022-09-25T00:40:10.111Z,22.52
2022-09-25T00:42:36.533Z,21.38
2022-09-25T00:45:07.198Z,20.63
2022-09-25T00:47:57.644Z,22.50
2022-09-25T00:50:32.812Z,24.93
2022-09-25T00:53:05.203Z,19.15
2022-09-25T00:55:34.412Z,19.38
2022-09-25T00:58:03.442Z,19.73
2022-09-25T01:00:31.306Z,21.10
2022-09-25T01:02:58.741Z,20.02
2022-09-25T01:05:30.412Z,20.20
2022-09-25T01:07:59.647Z,20.45
2022-09-25T01:10:26.425Z,23.30
2022-09-25T01:12:54.135Z,18.23
2022-09-25T01:15:28.059Z,19.75
2022-09-25T01:18:13.471Z,19.48
2022-09-25T01:20:51.815Z,22.17
2022-09-25T01:23:37.862Z,17.90
2022-09-25T01:26:31.243Z,18.60
2022-09-25T01:29:15.875Z,18.60
2022-09-25T01:31:45.283Z,21.67
2022-09-25T01:34:20.029Z,21.00
2022-09-25T01:37:09.850Z,18.73
2022-09-25T01:39:41.443Z,19.10
2022-09-25T01:42:18.125Z,17.08
2022-09-25T01:44:52.011Z,16.90
2022-09-25T01:47:26.762Z,16.42
2022-09-25T01:49:57.867Z,19.73
2022-09-25T01:52:31.299Z,17.65
2022-09-25T01:55:05.689Z,14.40
2022-09-25T01:57:41.661Z,14.82
2022-09-25T02:00:10.324Z,13.85
2022-09-25T02:02:48.296Z,14.05
2022-09-25T02:05:21.836Z,12.27
2022-09-25T02:07:54.228Z,14.82
2022-09-25T02:10:33.325Z,14.80
2022-09-25T02:13:08.652Z,14.05
2022-09-25T02:15:40.137Z,14.05
2022-09-25T02:18:29.678Z,16.75
2022-09-25T02:21:06.788Z,12.73
2022-09-25T02:23:42.542Z,13.70
2022-09-25T02:26:16.317Z,19.17
2022-09-25T02:28:43.377Z,14.60
2022-09-25T02:31:12.864Z,16.17
2022-09-25T02:33:39.327Z,14.07
2022-09-25T02:36:06.409Z,14.60
2022-09-25T02:38:34.534Z,15.25
2022-09-25T02:41:18.950Z,16.25
2022-09-25T02:44:02.729Z,16.20
2022-09-25T02:46:48.791Z,12.80
2022-09-25T02:49:44.406Z,13.05
2022-09-25T02:52:16.368Z,12.85
2022-09-25T02:54:54.709Z,14.13
2022-09-25T02:57:38.265Z,12.48
2022-09-25T03:00:07.442Z,16.33
2022-09-25T03:02:37.206Z,15.07
2022-09-25T03:05:05.791Z,14.85
2022-09-25T03:07:53.210Z,11.23
2022-09-25T03:10:20.510Z,14.35
2022-09-25T03:12:46.913Z,15.63
2022-09-25T03:15:13.350Z,13.10
2022-09-25T03:17:39.877Z,12.32
2022-09-25T03:20:07.336Z,12.07
2022-09-25T03:22:33.751Z,12.63
2022-09-25T03:25:00.171Z,10.82
2022-09-25T03:27:28.185Z,11.43
2022-09-25T03:29:55.331Z,12.45
2022-09-25T03:32:23.620Z,12.50
2022-09-25T03:34:50.310Z,14.68
2022-09-25T03:37:16.714Z,10.35
2022-09-25T03:39:43.119Z,12.60
2022-09-25T03:42:09.548Z,10.43
2022-09-25T03:44:36.433Z,12.50
2022-09-25T03:47:02.837Z,14.45
2022-09-25T03:49:29.236Z,11.63
2022-09-25T03:51:55.635Z,9.18
2022-09-25T03:54:22.025Z,10.48
2022-09-25T03:56:48.476Z,9.45
2022-09-25T03:59:14.957Z,11.27
2022-09-25T04:01:42.502Z,9.57
2022-09-25T04:04:09.024Z,12.57
2022-09-25T04:06:36.236Z,8.90
2022-09-25T04:09:02.637Z,11.07
2022-09-25T04:11:29.052Z,9.82
2022-09-25T04:13:57.290Z,12.93
2022-09-25T04:16:23.753Z,9.73
2022-09-25T04:18:50.626Z,12.93
2022-09-25T04:21:17.102Z,10.90
2022-09-25T04:24:03.589Z,10.93
2022-09-25T04:26:30.508Z,9.93
2022-09-25T04:28:56.889Z,9.13
2022-09-25T04:31:23.318Z,9.45
2022-09-25T04:33:49.717Z,12.57
2022-09-25T04:36:16.792Z,9.35
2022-09-25T04:38:43.881Z,17.77
2022-09-25T04:41:10.458Z,11.32
2022-09-25T04:43:37.061Z,11.40
2022-09-25T04:46:05.632Z,11.55
2022-09-25T04:48:32.976Z,11.73
2022-09-25T04:50:59.696Z,11.73
2022-09-25T04:53:27.899Z,8.32
2022-09-25T04:55:55.796Z,8.68
2022-09-25T04:58:22.195Z,9.38
2022-09-25T05:00:49.176Z,9.90
2022-09-25T05:03:15.798Z,9.77
2022-09-25T05:05:42.323Z,10.23
2022-09-25T05:08:09.688Z,9.50
2022-09-25T05:10:36.211Z,12.32
2022-09-25T05:13:04.182Z,11.18
2022-09-25T05:15:33.248Z,8.48
2022-09-25T05:18:15.731Z,10.63
2022-09-25T05:20:42.175Z,10.82
2022-09-25T05:23:08.780Z,10.68
2022-09-25T05:25:35.184Z,8.70
2022-09-25T05:28:02.050Z,10.25
2022-09-25T05:30:31.601Z,13.20
2022-09-25T05:33:00.874Z,12.05
2022-09-25T05:35:30.812Z,11.13
2022-09-25T05:37:57.602Z,11.23
2022-09-25T05:40:24.375Z,10.38
2022-09-25T05:42:51.943Z,11.52
2022-09-25T05:45:20.034Z,10.57
2022-09-25T05:47:47.017Z,11.90
2022-09-25T05:50:15.421Z,14.13
2022-09-25T05:52:41.806Z,10.52
2022-09-25T05:55:09.703Z,14.27
2022-09-25T05:57:37.199Z,11.32
2022-09-25T06:00:09.375Z,11.32
2022-09-25T06:02:39.042Z,13.80
2022-09-25T06:05:05.501Z,11.40
2022-09-25T06:07:31.893Z,12.32
2022-09-25T06:09:58.315Z,13.00
2022-09-25T06:12:24.770Z,17.05
2022-09-25T06:14:52.468Z,14.13
2022-09-25T06:17:19.104Z,16.50
2022-09-25T06:19:45.507Z,12.25
2022-09-25T06:22:12.003Z,11.10
2022-09-25T06:24:38.402Z,12.38
2022-09-25T06:27:06.535Z,10.15
2022-09-25T06:29:32.945Z,11.15
2022-09-25T06:31:59.352Z,13.30
2022-09-25T06:34:28.275Z,15.00
2022-09-25T06:36:54.700Z,11.75
2022-09-25T06:39:21.231Z,13.48
2022-09-25T06:41:47.648Z,13.77
2022-09-25T06:44:21.923Z,12.88
2022-09-25T06:46:54.368Z,14.38
2022-09-25T06:49:21.853Z,15.48
2022-09-25T06:51:48.378Z,15.05
2022-09-25T06:54:14.805Z,12.65
2022-09-25T06:56:41.233Z,14.52
2022-09-25T06:59:09.132Z,13.98
2022-09-25T07:01:35.845Z,14.50
2022-09-25T07:04:04.086Z,14.02
2022-09-25T07:06:31.864Z,18.13
2022-09-25T07:08:58.373Z,18.60
2022-09-25T07:11:28.022Z,17.05
2022-09-25T07:13:55.167Z,15.75
2022-09-25T07:16:24.757Z,16.85
2022-09-25T07:18:54.666Z,15.20
2022-09-25T07:21:24.436Z,17.20
2022-09-25T07:23:52.133Z,15.18
2022-09-25T07:26:22.214Z,17.85
2022-09-25T07:28:54.976Z,17.50
2022-09-25T07:31:30.112Z,18.35
2022-09-25T07:33:57.760Z,13.05
2022-09-25T07:36:24.532Z,16.80
2022-09-25T07:38:52.282Z,16.00
2022-09-25T07:41:20.883Z,15.80
2022-09-25T07:43:47.292Z,14.43
2022-09-25T07:46:13.763Z,19.27
2022-09-25T07:48:40.419Z,17.45
2022-09-25T07:51:09.974Z,13.57
2022-09-25T07:53:36.667Z,17.90
2022-09-25T07:56:06.864Z,14.20
2022-09-25T07:58:35.291Z,16.25
2022-09-25T08:01:05.306Z,17.20
2022-09-25T08:03:32.245Z,19.73
2022-09-25T08:06:00.587Z,17.55
2022-09-25T08:08:27.809Z,14.63
2022-09-25T08:10:59.768Z,15.93
2022-09-25T08:13:26.163Z,17.48
2022-09-25T08:15:52.649Z,18.00
2022-09-25T08:18:19.123Z,19.48
2022-09-25T08:20:45.506Z,17.10
2022-09-25T08:23:11.905Z,19.42
2022-09-25T08:25:38.619Z,16.52
2022-09-25T08:28:05.024Z,18.55
2022-09-25T08:30:31.648Z,18.50
2022-09-25T08:32:58.163Z,16.88
2022-09-25T08:35:24.590Z,19.08
2022-09-25T08:37:50.971Z,18.83
2022-09-25T08:40:26.889Z,15.90
2022-09-25T08:42:55.160Z,16.45
2022-09-25T08:45:46.116Z,15.18
2022-09-25T08:49:03.581Z,15.50
2022-09-25T08:51:32.399Z,15.52
2022-09-25T08:53:59.963Z,14.63
2022-09-25T08:56:32.569Z,18.92
2022-09-25T08:59:30.724Z,15.30
2022-09-25T09:02:00.901Z,13.20
2022-09-25T09:04:35.838Z,13.67
2022-09-25T09:07:32.249Z,13.30
2022-09-25T09:10:21.319Z,11.60
2022-09-25T09:12:56.469Z,13.48
2022-09-25T09:15:30.380Z,12.57
2022-09-25T09:17:59.772Z,15.77
2022-09-25T09:20:41.438Z,14.10
2022-09-25T09:23:17.075Z,13.10
2022-09-25T09:25:58.411Z,15.50
2022-09-25T09:28:44.641Z,12.63
2022-09-25T09:31:49.974Z,14.45
2022-09-25T09:35:03.978Z,14.15
2022-09-25T09:37:52.578Z,13.45
2022-09-25T09:40:53.685Z,10.88
2022-09-25T09:43:31.565Z,12.10
2022-09-25T09:46:08.239Z,11.35
2022-09-25T09:48:48.618Z,12.07
2022-09-25T09:51:21.382Z,12.15
2022-09-25T09:53:53.055Z,13.80
2022-09-25T09:56:31.870Z,11.93
2022-09-25T09:59:05.062Z,15.65
2022-09-25T10:01:41.428Z,11.30
2022-09-25T10:04:17.130Z,11.02
2022-09-25T10:06:59.246Z,10.88
2022-09-25T10:09:28.112Z,11.02
2022-09-25T10:12:05.323Z,11.57
2022-09-25T10:14:40.905Z,13.43
2022-09-25T10:17:11.454Z,10.07
2022-09-25T10:19:47.569Z,17.33
2022-09-25T10:22:17.344Z,14.45
2022-09-25T10:24:58.555Z,10.45
2022-09-25T10:27:36.827Z,21.50
2022-09-25T10:30:08.910Z,11.27
2022-09-25T10:32:57.248Z,9.90
2022-09-25T10:35:42.017Z,11.90
2022-09-25T10:38:43.951Z,9.85
2022-09-25T10:41:14.688Z,10.55
2022-09-25T10:44:00.006Z,10.45
2022-09-25T10:46:53.111Z,12.60
2022-09-25T10:49:46.292Z,9.82
2022-09-25T10:52:15.507Z,10.77
2022-09-25T10:54:45.543Z,12.93
2022-09-25T10:57:36.471Z,9.13
2022-09-25T11:00:06.035Z,8.43
2022-09-25T11:02:43.048Z,9.52
2022-09-25T11:05:19.880Z,15.20
2022-09-25T11:07:54.937Z,11.80
2022-09-25T11:10:23.782Z,10.00
2022-09-25T11:12:52.018Z,11.55
2022-09-25T11:15:21.506Z,10.05
2022-09-25T11:17:51.460Z,14.52
2022-09-25T11:20:31.969Z,11.60
2022-09-25T11:23:22.171Z,10.60
2022-09-25T11:25:57.724Z,8.77
2022-09-25T11:28:37.191Z,9.18
2022-09-25T11:31:32.867Z,10.38
2022-09-25T11:34:05.102Z,10.05
2022-09-25T11:37:01.090Z,11.23
2022-09-25T11:39:58.128Z,9.20
2022-09-25T11:42:35.503Z,9.57
2022-09-25T11:45:10.630Z,8.07
2022-09-25T11:47:44.201Z,9.88
2022-09-25T11:50:15.860Z,8.98
2022-09-25T11:52:50.796Z,8.82
2022-09-25T11:55:46.618Z,10.63
2022-09-25T11:58:14.474Z,9.65
2022-09-25T12:00:52.634Z,9.40
2022-09-25T12:03:41.025Z,9.98
2022-09-25T12:06:26.879Z,10.75
2022-09-25T12:09:22.741Z,8.15
2022-09-25T12:12:03.277Z,11.02
2022-09-25T12:14:38.494Z,10.48
2022-09-25T12:17:20.029Z,9.80
2022-09-25T12:20:20.321Z,8.20
2022-09-25T12:23:02.876Z,8.77
2022-09-25T12:25:47.948Z,8.77
2022-09-25T12:28:52.554Z,9.13
2022-09-25T12:31:53.504Z,8.68
2022-09-25T12:37:23.113Z,8.40
2022-09-25T12:40:04.023Z,9.77
2022-09-25T12:42:42.053Z,7.82
2022-09-25T12:45:18.446Z,9.18
2022-09-25T12:47:56.056Z,9.23
2022-09-25T12:50:31.195Z,12.95
2022-09-25T12:53:31.684Z,12.05
2022-09-25T12:56:24.217Z,8.75
2022-09-25T12:59:20.068Z,9.55
2022-09-25T13:02:03.817Z,8.88
2022-09-25T13:04:49.248Z,12.43
2022-09-25T13:07:21.321Z,8.75
2022-09-25T13:09:48.986Z,9.43
2022-09-25T13:12:35.383Z,9.07
2022-09-25T13:15:16.026Z,10.57
2022-09-25T13:17:42.641Z,16.35
2022-09-25T13:20:27.096Z,19.48
2022-09-25T13:23:09.786Z,12.73
2022-09-25T13:25:53.588Z,10.25
2022-09-25T13:28:23.420Z,13.65
2022-09-25T13:31:12.907Z,10.27
2022-09-25T13:33:52.648Z,13.20
2022-09-25T13:36:23.531Z,13.27
2022-09-25T13:41:55.344Z,11.38
2022-09-25T13:45:07.475Z,12.68
2022-09-25T13:47:43.730Z,9.48
2022-09-25T13:50:22.468Z,7.90
2022-09-25T13:52:48.792Z,9.75
2022-09-25T13:55:21.266Z,8.63
2022-09-25T13:57:57.294Z,10.98
2022-09-25T14:00:32.824Z,7.63
2022-09-25T14:03:03.067Z,7.72
2022-09-25T14:05:36.153Z,9.70
2022-09-25T14:08:09.145Z,10.82
2022-09-25T14:10:36.015Z,10.45
2022-09-25T14:13:06.902Z,10.73
2022-09-25T14:15:49.492Z,9.55
2022-09-25T14:18:37.536Z,9.68
2022-09-25T14:21:07.635Z,9.77
2022-09-25T14:23:34.060Z,14.03
2022-09-25T14:26:03.053Z,11.10
2022-09-25T14:28:31.673Z,11.65
2022-09-25T14:31:34.730Z,9.90
2022-09-25T14:34:37.635Z,10.73
2022-09-25T14:37:16.112Z,9.75
2022-09-25T14:40:11.565Z,8.52
2022-09-25T14:43:02.891Z,9.38
2022-09-25T14:46:00.274Z,10.43
2022-09-25T14:48:36.748Z,9.23
2022-09-25T14:51:12.162Z,8.57
2022-09-25T14:53:46.462Z,9.73
2022-09-25T14:56:14.685Z,8.82
2022-09-25T14:58:46.235Z,10.32
2022-09-25T15:01:27.759Z,10.63
2022-09-25T15:03:58.669Z,9.15
2022-09-25T15:08:56.367Z,9.13
2022-09-25T15:11:27.134Z,10.73
2022-09-25T15:13:55.032Z,10.07
2022-09-25T15:16:45.592Z,9.05
2022-09-25T15:19:20.558Z,9.07
2022-09-25T15:21:47.541Z,9.55
2022-09-25T15:24:27.759Z,8.35
2022-09-25T15:27:03.803Z,7.60
2022-09-25T15:29:38.112Z,9.65
2022-09-25T15:32:05.772Z,7.40
2022-09-25T15:34:32.858Z,7.35
2022-09-25T15:37:26.241Z,10.63
2022-09-25T15:39:53.374Z,7.10
2022-09-25T15:42:20.291Z,8.77
2022-09-25T15:44:47.831Z,8.93
2022-09-25T15:47:35.744Z,7.13
2022-09-25T15:50:06.115Z,8.60
2022-09-25T15:52:33.970Z,6.90
2022-09-25T15:55:03.201Z,10.65
2022-09-25T15:57:32.161Z,8.45
2022-09-25T16:00:23.090Z,6.78
2022-09-25T16:03:17.413Z,5.53
2022-09-25T16:05:47.371Z,7.80
2022-09-25T16:08:30.894Z,6.73
2022-09-25T16:11:17.221Z,6.97
2022-09-25T16:13:48.449Z,7.20
2022-09-25T16:16:23.409Z,7.15
2022-09-25T16:18:51.174Z,7.97
2022-09-25T16:21:28.828Z,8.77
2022-09-25T16:24:05.769Z,6.07
2022-09-25T16:26:42.804Z,10.82
2022-09-25T16:29:12.215Z,7.05
2022-09-25T16:31:43.915Z,6.43
2022-09-25T16:34:30.731Z,7.15
2022-09-25T16:37:00.727Z,6.70
2022-09-25T16:39:37.867Z,6.87
2022-09-25T16:42:29.449Z,8.30
2022-09-25T16:45:14.716Z,6.60
2022-09-25T16:47:46.827Z,7.18
2022-09-25T16:50:16.181Z,6.80
2022-09-25T16:52:44.019Z,7.13
2022-09-25T16:55:29.318Z,9.10
2022-09-25T16:57:56.929Z,8.40
2022-09-25T17:00:25.789Z,6.70
2022-09-25T17:02:53.976Z,12.23
2022-09-25T17:05:26.498Z,17.83
2022-09-25T17:07:55.968Z,12.75
2022-09-25T17:10:25.736Z,10.05
2022-09-25T17:12:54.250Z,9.32
2022-09-25T17:15:24.124Z,13.32
2022-09-25T17:17:54.642Z,9.98
2022-09-25T17:20:23.380Z,11.27
2022-09-25T17:22:54.183Z,17.70
2022-09-25T17:25:48.433Z,30.35
2022-09-25T17:28:15.553Z,33.55
2022-09-25T17:30:42.764Z,28.83
2022-09-25T17:33:21.382Z,19.00
2022-09-25T17:36:04.856Z,11.93
2022-09-25T17:38:32.534Z,13.82
2022-09-25T17:41:05.442Z,13.77
2022-09-25T17:43:32.786Z,14.15
2022-09-25T17:46:00.987Z,13.13
2022-09-25T17:48:30.654Z,11.95
2022-09-25T17:50:59.895Z,11.82
2022-09-25T17:53:28.898Z,14.07
2022-09-25T17:56:00.016Z,12.63
2022-09-25T17:58:28.772Z,10.57
2022-09-25T18:00:57.669Z,15.23
2022-09-25T18:03:24.092Z,10.57
2022-09-25T18:05:50.513Z,11.02
2022-09-25T18:08:17.913Z,7.20
2022-09-25T18:10:45.048Z,10.32
2022-09-25T18:13:15.660Z,6.40
2022-09-25T18:15:48.290Z,7.43
2022-09-25T18:18:15.271Z,8.35
2022-09-25T18:21:00.163Z,7.78
2022-09-25T18:23:26.818Z,5.78
2022-09-25T18:25:54.709Z,6.75
2022-09-25T18:28:21.210Z,6.80
2022-09-25T18:30:47.654Z,6.40
2022-09-25T18:33:14.075Z,6.75
2022-09-25T18:35:42.736Z,7.82
2022-09-25T18:38:09.160Z,6.38
2022-09-25T18:40:35.603Z,7.65
2022-09-25T18:43:02.064Z,11.75
2022-09-25T18:45:28.440Z,6.78
2022-09-25T18:47:54.814Z,6.55
2022-09-25T18:50:21.280Z,6.57
2022-09-25T18:52:47.849Z,10.88
2022-09-25T18:55:14.240Z,11.20
2022-09-25T18:57:40.953Z,9.40
2022-09-25T19:00:07.876Z,8.30
2022-09-25T19:02:38.787Z,8.07
2022-09-25T19:05:06.602Z,7.28
2022-09-25T19:07:33.086Z,8.50
2022-09-25T19:10:01.746Z,8.98
2022-09-25T19:12:28.173Z,6.00
2022-09-25T19:14:54.548Z,7.68
2022-09-25T19:17:20.991Z,6.88
2022-09-25T19:19:47.372Z,8.23
2022-09-25T19:22:20.184Z,7.97
2022-09-25T19:24:47.975Z,8.65
2022-09-25T19:27:16.143Z,11.48
2022-09-25T19:29:44.782Z,11.15
2022-09-25T19:32:13.356Z,10.05
2022-09-25T19:34:40.308Z,10.32
2022-09-25T19:37:07.344Z,10.18
2022-09-25T19:39:52.650Z,9.15
2022-09-25T19:42:19.280Z,8.70
2022-09-25T19:44:46.926Z,7.60
2022-09-25T19:47:13.380Z,10.00
2022-09-25T19:49:39.803Z,11.40
2022-09-25T19:52:06.249Z,8.45
2022-09-25T19:54:32.776Z,8.65
2022-09-25T19:56:59.534Z,9.38
2022-09-25T19:59:26.119Z,12.88
2022-09-25T20:01:53.540Z,12.13
2022-09-25T20:04:20.239Z,8.95
2022-09-25T20:06:47.282Z,7.82
2022-09-25T20:09:14.569Z,7.55
2022-09-25T20:11:41.069Z,10.70
2022-09-25T20:14:07.786Z,8.82
2022-09-25T20:16:34.448Z,8.05
2022-09-25T20:19:03.493Z,8.63
2022-09-25T20:21:32.816Z,9.80
2022-09-25T20:24:01.447Z,10.25
2022-09-25T20:26:28.896Z,9.30
2022-09-25T20:28:59.995Z,10.13
2022-09-25T20:31:28.616Z,8.52
2022-09-25T20:33:55.622Z,8.27
2022-09-25T20:36:22.677Z,11.40
2022-09-25T20:38:50.759Z,10.00
2022-09-25T20:41:18.284Z,10.15
2022-09-25T20:43:44.956Z,8.40
2022-09-25T20:46:13.547Z,9.55
2022-09-25T20:48:47.514Z,6.45
2022-09-25T20:51:16.290Z,7.18
2022-09-25T20:53:43.271Z,11.82
2022-09-25T20:56:14.800Z,8.02
2022-09-25T20:58:43.145Z,11.68
2022-09-25T21:01:12.647Z,7.32
2022-09-25T21:03:41.518Z,7.18
2022-09-25T21:06:12.390Z,9.48
2022-09-25T21:08:39.032Z,9.15
2022-09-25T21:11:06.192Z,7.70
2022-09-25T21:13:34.217Z,9.32
2022-09-25T21:16:04.426Z,8.45
2022-09-25T21:18:35.036Z,7.70
2022-09-25T21:21:10.811Z,6.75
2022-09-25T21:23:37.464Z,7.22
2022-09-25T21:26:08.975Z,8.50
2022-09-25T21:28:36.302Z,8.50
2022-09-25T21:31:14.901Z,6.75
2022-09-25T21:33:41.805Z,6.57
2022-09-25T21:36:13.251Z,7.82
2022-09-25T21:38:39.815Z,10.55
2022-09-25T21:41:08.672Z,7.70
2022-09-25T21:43:35.899Z,8.32
2022-09-25T21:46:08.592Z,8.80
2022-09-25T21:48:36.484Z,9.15
2022-09-25T21:51:04.890Z,9.07
2022-09-25T21:53:31.718Z,8.38
2022-09-25T21:56:20.923Z,7.97
2022-09-25T21:58:47.331Z,8.05
2022-09-25T22:01:19.427Z,8.52
2022-09-25T22:03:50.465Z,7.38
2022-09-25T22:08:47.219Z,6.75
2022-09-25T22:11:14.118Z,6.30
2022-09-25T22:13:43.252Z,9.00
2022-09-25T22:16:15.560Z,6.72
2022-09-25T22:18:48.014Z,5.40
2022-09-25T22:21:18.181Z,6.13
2022-09-25T22:23:44.971Z,6.00
2022-09-25T22:26:13.313Z,5.15
2022-09-25T22:28:40.182Z,7.95
2022-09-25T22:31:13.917Z,8.50
2022-09-25T22:33:40.357Z,6.72
2022-09-25T22:36:09.162Z,8.23
2022-09-25T22:38:36.208Z,4.95
2022-09-25T22:41:08.435Z,6.55
2022-09-25T22:43:35.397Z,7.00
2022-09-25T22:46:01.908Z,3.85
2022-09-25T22:48:28.368Z,6.97
2022-09-25T22:51:08.632Z,7.95
2022-09-25T22:53:35.710Z,6.57
2022-09-25T22:56:11.093Z,9.27
2022-09-25T22:58:38.071Z,7.30
2022-09-25T23:01:09.232Z,5.82
2022-09-25T23:03:35.745Z,7.25
2022-09-25T23:06:03.175Z,4.43
2022-09-25T23:08:30.272Z,5.82
2022-09-25T23:11:07.166Z,4.68
2022-09-25T23:13:35.220Z,4.18
2022-09-25T23:16:08.114Z,6.50
2022-09-25T23:18:36.415Z,5.18
2022-09-25T23:21:03.967Z,8.45
2022-09-25T23:23:30.807Z,6.88
2022-09-25T23:26:01.963Z,6.38
2022-09-25T23:28:28.360Z,9.15
2022-09-25T23:30:54.831Z,7.38
2022-09-25T23:33:21.290Z,4.93
2022-09-25T23:35:47.708Z,6.35
2022-09-25T23:38:14.111Z,8.45
2022-09-25T23:40:40.597Z,8.65
2022-09-25T23:43:07.053Z,8.27
2022-09-25T23:45:33.564Z,6.40
2022-09-25T23:48:00.062Z,6.25
2022-09-25T23:50:26.451Z,6.07
2022-09-25T23:52:52.831Z,6.97
2022-09-25T23:55:19.233Z,11.00
2022-09-25T23:57:45.632Z,9.05
